Time;durP1;ratioP1;P1;durP2;ratioP2;P2;SDS_P1;SDS_P2;PMS_P1;PMS_P2;Temp;Humidity;BMP_temperature;BMP_pressure;BME280_temperature;BME280_humidity;BME280_pressure;Samples;Min_cycle;Max_cycle;Signal;HPM_P1;HPM_P2
2022/10/08 00:00:51;;;;;;;20.08;4.35;;;;;;;;;;5017938;28;20544;-73
2022/10/08 00:03:18;;;;;;;25.73;4.07;;;;;;;;;;5035251;28;20445;-75
2022/10/08 00:05:43;;;;;;;27.02;4.68;;;;;;;;;;5034744;28;20033;-75
2022/10/08 00:08:10;;;;;;;27.73;4.03;;;;;;;;;;5034477;28;20029;-74
2022/10/08 00:10:36;;;;;;;29.90;4.63;;;;;;;;;;5034019;28;20184;-73
2022/10/08 00:13:03;;;;;;;27.50;4.75;;;;;;;;;;5035163;28;20029;-73
2022/10/08 00:15:29;;;;;;;25.15;4.07;;;;;;;;;;5034844;28;20490;-74
2022/10/08 00:17:55;;;;;;;23.67;4.30;;;;;;;;;;5035144;28;20025;-74
2022/10/08 00:20:21;;;;;;;27.42;4.30;;;;;;;;;;5019714;28;20025;-75
2022/10/08 00:22:48;;;;;;;28.33;4.57;;;;;;;;;;5039104;28;20104;-76
2022/10/08 00:25:14;;;;;;;25.92;4.43;;;;;;;;;;5024899;28;20064;-73
2022/10/08 00:27:41;;;;;;;28.65;5.13;;;;;;;;;;5036260;22;20049;-76
2022/10/08 00:30:07;;;;;;;22.85;4.88;;;;;;;;;;5015254;28;20034;-76
2022/10/08 00:32:33;;;;;;;30.67;4.95;;;;;;;;;;5015251;28;20124;-77
2022/10/08 00:34:59;;;;;;;27.55;5.07;;;;;;;;;;5033666;28;20017;-77
2022/10/08 00:37:25;;;;;;;31.92;4.25;;;;;;;;;;5036272;28;20025;-77
2022/10/08 00:39:51;;;;;;;30.33;4.88;;;;;;;;;;5037433;28;20214;-77
2022/10/08 00:42:17;;;;;;;28.52;4.28;;;;;;;;;;5036903;28;20041;-77
2022/10/08 00:44:43;;;;;;;30.73;5.10;;;;;;;;;;5020639;28;20049;-77
2022/10/08 00:47:21;;;;;;;22.05;5.03;;;;;;;;;;5019985;28;20120;-76
2022/10/08 00:49:48;;;;;;;29.45;4.43;;;;;;;;;;5015142;28;20399;-77
2022/10/08 00:52:15;;;;;;;24.60;4.47;;;;;;;;;;5014664;28;20075;-78
2022/10/08 00:54:41;;;;;;;26.08;4.00;;;;;;;;;;5014217;28;20096;-77
2022/10/08 00:57:08;;;;;;;34.03;5.35;;;;;;;;;;5013732;28;20025;-76
2022/10/08 00:59:36;;;;;;;24.83;4.35;;;;;;;;;;5014231;28;20100;-76
2022/10/08 01:02:02;;;;;;;38.97;4.95;;;;;;;;;;4996083;28;20049;-76
2022/10/08 01:04:28;;;;;;;29.25;4.75;;;;;;;;;;5013581;28;20034;-76
2022/10/08 01:07:17;;;;;;;29.40;4.53;;;;;;;;;;5014105;28;20018;-76
2022/10/08 01:09:46;;;;;;;28.50;5.35;;;;;;;;;;4996839;28;20096;-77
2022/10/08 01:12:25;;;;;;;23.80;4.82;;;;;;;;;;5014384;28;20061;-77
2022/10/08 01:14:59;;;;;;;30.63;4.60;;;;;;;;;;5013859;28;20395;-77
2022/10/08 01:17:41;;;;;;;31.25;4.43;;;;;;;;;;5014315;28;20037;-77
2022/10/08 01:20:30;;;;;;;28.25;4.78;;;;;;;;;;5013788;28;20108;-77
2022/10/08 01:23:23;;;;;;;26.23;4.53;;;;;;;;;;5006680;28;20080;-75
2022/10/08 01:26:07;;;;;;;33.53;5.15;;;;;;;;;;4991535;28;20049;-75
2022/10/08 01:28:45;;;;;;;33.25;4.60;;;;;;;;;;5014483;28;20030;-76
2022/10/08 01:31:14;;;;;;;27.42;5.18;;;;;;;;;;5014269;28;20033;-77
2022/10/08 01:33:49;;;;;;;32.83;4.30;;;;;;;;;;5014470;28;20050;-76
2022/10/08 01:36:17;;;;;;;30.17;4.00;;;;;;;;;;5025469;28;20041;-75
2022/10/08 01:38:45;;;;;;;31.45;5.57;;;;;;;;;;5027160;28;20024;-77
2022/10/08 01:41:13;;;;;;;33.92;4.90;;;;;;;;;;5028609;28;20071;-75
2022/10/08 01:43:42;;;;;;;23.80;4.30;;;;;;;;;;5027863;28;20026;-75
2022/10/08 01:46:17;;;;;;;27.13;4.53;;;;;;;;;;5027423;28;20065;-76
2022/10/08 01:48:43;;;;;;;;;;;;;;;;;;5028851;28;20030;-78
2022/10/08 01:51:13;;;;;;;18.85;4.05;;;;;;;;;;5025810;28;19912;-76
2022/10/08 01:53:41;;;;;;;24.25;4.70;;;;;;;;;;5012961;28;20188;-75
2022/10/08 01:56:10;;;;;;;27.25;5.07;;;;;;;;;;5014948;28;20483;-76
2022/10/08 01:58:38;;;;;;;25.23;4.53;;;;;;;;;;5012703;28;20038;-76
2022/10/08 02:01:07;;;;;;;25.55;4.45;;;;;;;;;;5012141;28;20026;-76
2022/10/08 02:03:33;;;;;;;31.83;4.50;;;;;;;;;;5013435;28;20069;-77
2022/10/08 02:06:02;;;;;;;24.45;4.53;;;;;;;;;;5013079;28;20076;-77
2022/10/08 02:08:27;;;;;;;23.60;4.63;;;;;;;;;;5012872;28;20045;-78
2022/10/08 02:10:53;;;;;;;32.70;5.45;;;;;;;;;;5013073;28;20026;-77
2022/10/08 02:13:20;;;;;;;42.75;4.85;;;;;;;;;;5012723;28;20033;-77
2022/10/08 02:15:46;;;;;;;27.42;4.95;;;;;;;;;;5012595;28;20026;-76
2022/10/08 02:18:17;;;;;;;33.45;5.15;;;;;;;;;;5012793;28;20017;-75
2022/10/08 02:20:52;;;;;;;32.55;5.38;;;;;;;;;;5012544;28;20041;-77
2022/10/08 02:23:21;;;;;;;34.80;5.18;;;;;;;;;;5012380;28;20029;-75
2022/10/08 02:25:53;;;;;;;29.23;4.97;;;;;;;;;;4994483;28;20022;-76
2022/10/08 02:28:42;;;;;;;38.78;5.15;;;;;;;;;;5012214;28;20068;-77
2022/10/08 02:31:13;;;;;;;29.05;4.88;;;;;;;;;;4984827;28;20034;-77
2022/10/08 02:33:43;;;;;;;28.27;5.25;;;;;;;;;;5016058;28;20106;-76
2022/10/08 02:36:11;;;;;;;24.13;5.00;;;;;;;;;;5017175;28;20484;-77
2022/10/08 02:38:46;;;;;;;33.20;6.20;;;;;;;;;;5017031;28;20080;-76
2022/10/08 02:41:13;;;;;;;27.50;5.40;;;;;;;;;;5017361;28;20518;-76
2022/10/08 02:43:42;;;;;;;22.52;4.45;;;;;;;;;;5019429;28;20072;-77
2022/10/08 02:46:15;;;;;;;26.08;5.03;;;;;;;;;;5018261;28;20026;-78
2022/10/08 02:48:45;;;;;;;24.55;4.50;;;;;;;;;;5026790;28;20385;-75
2022/10/08 02:51:14;;;;;;;26.80;5.10;;;;;;;;;;5030631;28;20029;-75
2022/10/08 02:53:41;;;;;;;26.42;5.00;;;;;;;;;;5034391;28;20023;-77
2022/10/08 02:56:07;;;;;;;30.55;4.95;;;;;;;;;;5035321;28;20034;-77
2022/10/08 02:58:33;;;;;;;22.65;4.22;;;;;;;;;;5037417;28;20048;-77
2022/10/08 03:01:03;;;;;;;35.10;4.75;;;;;;;;;;5039235;28;20034;-76
2022/10/08 03:03:32;;;;;;;20.40;4.50;;;;;;;;;;5039268;28;20041;-77
2022/10/08 03:06:01;;;;;;;29.10;4.80;;;;;;;;;;5038534;28;20018;-78
2022/10/08 03:08:27;;;;;;;25.25;4.70;;;;;;;;;;5028154;28;20056;-75
2022/10/08 03:10:53;;;;;;;24.90;4.68;;;;;;;;;;5024163;28;20026;-76
2022/10/08 03:13:19;;;;;;;24.27;4.22;;;;;;;;;;5025219;28;20079;-76
2022/10/08 03:15:47;;;;;;;30.98;5.20;;;;;;;;;;5024805;28;20029;-76
2022/10/08 03:18:14;;;;;;;28.02;4.80;;;;;;;;;;5028198;28;20018;-75
2022/10/08 03:20:44;;;;;;;29.42;4.90;;;;;;;;;;5027632;28;20133;-75
2022/10/08 03:23:13;;;;;;;26.60;4.45;;;;;;;;;;5011991;28;20065;-77
2022/10/08 03:25:38;;;;;;;30.25;4.80;;;;;;;;;;5030870;28;20029;-76
2022/10/08 03:28:04;;;;;;;29.20;4.60;;;;;;;;;;5030773;28;20057;-76
2022/10/08 03:30:30;;;;;;;31.33;5.05;;;;;;;;;;5024170;28;20034;-77
2022/10/08 03:32:56;;;;;;;35.95;5.63;;;;;;;;;;5015456;28;20065;-74
2022/10/08 03:35:22;;;;;;;26.83;4.18;;;;;;;;;;5015386;28;20026;-76
2022/10/08 03:37:48;;;;;;;25.55;4.90;;;;;;;;;;5016644;28;20048;-75
2022/10/08 03:40:14;;;;;;;27.30;5.13;;;;;;;;;;4999406;28;20029;-76
2022/10/08 03:42:40;;;;;;;31.60;4.50;;;;;;;;;;5015254;28;20471;-76
2022/10/08 03:45:06;;;;;;;25.73;4.70;;;;;;;;;;4997977;28;20026;-76
2022/10/08 03:47:32;;;;;;;31.05;5.22;;;;;;;;;;4997589;28;20049;-75
2022/10/08 03:49:58;;;;;;;36.38;5.60;;;;;;;;;;5015087;28;20479;-76
2022/10/08 03:52:24;;;;;;;32.05;5.10;;;;;;;;;;5015085;28;20479;-78
2022/10/08 03:54:50;;;;;;;28.02;5.13;;;;;;;;;;5016304;28;20155;-76
2022/10/08 03:57:16;;;;;;;30.40;5.35;;;;;;;;;;5001082;28;20022;-76
2022/10/08 03:59:42;;;;;;;31.25;5.20;;;;;;;;;;5016754;28;20029;-75
2022/10/08 04:02:08;;;;;;;36.60;6.43;;;;;;;;;;5018004;28;20026;-77
2022/10/08 04:04:34;;;;;;;29.80;5.75;;;;;;;;;;5015975;28;20458;-76
2022/10/08 04:07:00;;;;;;;39.70;6.13;;;;;;;;;;4997107;28;20084;-76
2022/10/08 04:09:26;;;;;;;25.60;5.70;;;;;;;;;;5014692;28;20034;-75
2022/10/08 04:11:52;;;;;;;31.35;6.00;;;;;;;;;;5014715;28;20026;-76
2022/10/08 04:14:18;;;;;;;32.47;6.47;;;;;;;;;;4997302;28;20030;-76
2022/10/08 04:16:44;;;;;;;25.77;5.60;;;;;;;;;;5014226;28;20021;-75
2022/10/08 04:19:11;;;;;;;30.85;6.65;;;;;;;;;;5014475;28;20029;-75
2022/10/08 04:21:37;;;;;;;30.02;6.38;;;;;;;;;;5014888;28;20380;-76
2022/10/08 04:24:03;;;;;;;25.38;6.07;;;;;;;;;;5014445;28;20080;-75
2022/10/08 04:26:29;;;;;;;32.35;6.25;;;;;;;;;;5016710;28;20030;-75
2022/10/08 04:28:55;;;;;;;24.63;6.15;;;;;;;;;;4996868;28;20033;-76
2022/10/08 04:31:22;;;;;;;36.90;6.60;;;;;;;;;;5014242;28;20025;-75
2022/10/08 04:33:48;;;;;;;30.20;6.18;;;;;;;;;;5014725;28;20034;-75
2022/10/08 04:36:15;;;;;;;32.92;6.38;;;;;;;;;;5014536;28;20030;-75
2022/10/08 04:38:41;;;;;;;28.77;6.35;;;;;;;;;;5015678;28;20013;-76
2022/10/08 04:41:09;;;;;;;27.33;5.20;;;;;;;;;;5017748;28;20128;-77
2022/10/08 04:43:36;;;;;;;25.65;5.68;;;;;;;;;;5019035;28;20057;-76
2022/10/08 04:46:02;;;;;;;33.80;6.28;;;;;;;;;;5000569;28;20026;-77
2022/10/08 04:48:28;;;;;;;31.88;5.15;;;;;;;;;;5019456;28;20029;-77
2022/10/08 04:50:58;;;;;;;28.27;5.10;;;;;;;;;;5016590;28;20022;-77
2022/10/08 04:53:27;;;;;;;27.05;5.20;;;;;;;;;;5014034;28;20152;-77
2022/10/08 04:55:54;;;;;;;30.73;5.68;;;;;;;;;;5013089;28;20107;-76
2022/10/08 04:58:20;;;;;;;23.23;4.95;;;;;;;;;;5013723;28;20033;-75
2022/10/08 05:00:46;;;;;;;25.33;5.55;;;;;;;;;;4996436;28;20109;-75
2022/10/08 05:03:12;;;;;;;27.83;5.60;;;;;;;;;;4996374;28;20083;-75
2022/10/08 05:05:39;;;;;;;25.23;4.97;;;;;;;;;;5013865;28;20032;-76
2022/10/08 05:08:05;;;;;;;28.10;6.18;;;;;;;;;;5014701;28;20391;-76
2022/10/08 05:10:31;;;;;;;35.85;6.20;;;;;;;;;;5015235;28;20026;-76
2022/10/08 05:12:57;;;;;;;33.42;4.72;;;;;;;;;;4996336;28;20034;-76
2022/10/08 05:15:23;;;;;;;26.17;5.20;;;;;;;;;;5014197;28;20038;-77
2022/10/08 05:17:49;;;;;;;26.40;5.80;;;;;;;;;;5014492;28;20033;-75
2022/10/08 05:20:15;;;;;;;29.40;4.65;;;;;;;;;;5014383;28;20060;-76
2022/10/08 05:22:41;;;;;;;26.95;5.10;;;;;;;;;;4998877;28;20022;-76
2022/10/08 05:25:07;;;;;;;30.13;5.85;;;;;;;;;;5027088;28;20073;-76
2022/10/08 05:27:33;;;;;;;21.25;5.40;;;;;;;;;;5022881;28;20093;-77
2022/10/08 05:30:01;;;;;;;25.40;5.93;;;;;;;;;;5029435;28;20030;-76
2022/10/08 05:32:27;;;;;;;19.63;4.70;;;;;;;;;;5029445;28;20021;-76
2022/10/08 05:34:53;;;;;;;31.88;4.63;;;;;;;;;;5028970;28;20447;-76
2022/10/08 05:37:19;;;;;;;34.22;5.15;;;;;;;;;;5008354;28;20032;-77
2022/10/08 05:39:45;;;;;;;32.72;5.20;;;;;;;;;;5016693;28;20101;-77
2022/10/08 05:42:10;;;;;;;28.98;5.10;;;;;;;;;;5020730;28;20022;-79
2022/10/08 05:44:36;;;;;;;28.38;5.35;;;;;;;;;;4999221;28;20387;-77
2022/10/08 05:47:02;;;;;;;32.33;5.80;;;;;;;;;;5013789;28;20441;-77
2022/10/08 05:49:28;;;;;;;27.35;4.68;;;;;;;;;;5032262;28;20044;-77
2022/10/08 05:51:54;;;;;;;22.25;4.85;;;;;;;;;;5033423;28;20030;-75
2022/10/08 05:54:20;;;;;;;30.00;5.57;;;;;;;;;;5017056;28;20032;-77
2022/10/08 05:56:47;;;;;;;29.45;5.45;;;;;;;;;;5035484;28;20030;-76
2022/10/08 05:59:16;;;;;;;27.90;4.90;;;;;;;;;;5032737;28;20570;-75
2022/10/08 06:01:42;;;;;;;28.85;5.60;;;;;;;;;;5012571;28;20022;-76
2022/10/08 06:04:09;;;;;;;29.38;5.28;;;;;;;;;;5012696;28;20030;-75
2022/10/08 06:06:36;;;;;;;28.98;4.97;;;;;;;;;;5012099;28;20060;-76
2022/10/08 06:09:03;;;;;;;26.33;5.72;;;;;;;;;;5013571;28;20101;-76
2022/10/08 06:11:29;;;;;;;34.35;4.97;;;;;;;;;;5012684;28;20029;-75
2022/10/08 06:13:57;;;;;;;24.60;5.55;;;;;;;;;;5012880;28;20026;-76
2022/10/08 06:16:23;;;;;;;26.25;5.85;;;;;;;;;;5019484;28;20026;-77
2022/10/08 06:18:49;;;;;;;29.95;6.15;;;;;;;;;;5017836;28;20109;-77
2022/10/08 06:21:20;;;;;;;20.48;4.47;;;;;;;;;;5020021;28;20057;-76
2022/10/08 06:23:47;;;;;;;31.60;5.85;;;;;;;;;;5001633;28;20030;-75
2022/10/08 06:26:13;;;;;;;34.42;5.25;;;;;;;;;;5018767;28;20030;-76
2022/10/08 06:28:39;;;;;;;29.80;5.55;;;;;;;;;;5001574;28;20040;-75
2022/10/08 06:31:07;;;;;;;33.30;5.05;;;;;;;;;;5023431;28;20417;-75
2022/10/08 06:33:33;;;;;;;30.95;4.65;;;;;;;;;;5048684;28;20025;-76
2022/10/08 06:36:06;;;;;;;26.73;5.43;;;;;;;;;;5027486;28;20105;-76
2022/10/08 06:38:32;;;;;;;31.50;5.70;;;;;;;;;;5045951;28;20084;-75
2022/10/08 06:40:59;;;;;;;24.75;4.40;;;;;;;;;;5044524;28;20040;-75
2022/10/08 06:43:25;;;;;;;28.05;5.07;;;;;;;;;;5038587;28;20037;-75
2022/10/08 06:45:52;;;;;;;19.35;4.50;;;;;;;;;;5043182;28;20022;-74
2022/10/08 06:48:18;;;;;;;27.83;5.80;;;;;;;;;;5049803;28;20029;-76
2022/10/08 06:50:45;;;;;;;25.42;4.88;;;;;;;;;;5016246;28;20022;-76
2022/10/08 06:53:11;;;;;;;28.83;5.07;;;;;;;;;;4996579;28;20041;-76
2022/10/08 06:55:37;;;;;;;23.25;4.35;;;;;;;;;;5027043;28;20018;-75
2022/10/08 06:58:04;;;;;;;25.98;4.97;;;;;;;;;;5031725;28;20032;-76
2022/10/08 07:00:30;;;;;;;28.98;4.95;;;;;;;;;;5031867;28;20028;-76
2022/10/08 07:02:56;;;;;;;24.83;4.70;;;;;;;;;;5032145;28;20041;-75
2022/10/08 07:05:22;;;;;;;23.88;4.55;;;;;;;;;;5031519;28;20057;-75
2022/10/08 07:07:48;;;;;;;23.75;4.95;;;;;;;;;;5034121;28;20068;-75
2022/10/08 07:10:14;;;;;;;25.85;5.07;;;;;;;;;;5013911;28;20478;-76
2022/10/08 07:12:40;;;;;;;36.47;5.00;;;;;;;;;;5031776;28;20394;-75
2022/10/08 07:15:06;;;;;;;23.92;4.10;;;;;;;;;;5031957;28;20098;-76
2022/10/08 07:17:32;;;;;;;17.35;3.90;;;;;;;;;;5032765;28;20483;-76
2022/10/08 07:19:58;;;;;;;28.80;4.40;;;;;;;;;;5036749;28;20041;-77
2022/10/08 07:22:24;;;;;;;19.40;4.10;;;;;;;;;;5038883;28;20040;-76
2022/10/08 07:24:51;;;;;;;24.00;4.85;;;;;;;;;;5039890;28;20105;-76
2022/10/08 07:27:18;;;;;;;24.52;4.47;;;;;;;;;;5034960;28;20063;-77
2022/10/08 07:29:44;;;;;;;19.25;4.35;;;;;;;;;;5036107;28;20032;-74
2022/10/08 07:32:10;;;;;;;21.50;4.75;;;;;;;;;;5035094;28;20030;-76
2022/10/08 07:34:36;;;;;;;22.70;4.38;;;;;;;;;;5036520;28;20029;-77
2022/10/08 07:37:02;;;;;;;20.70;4.00;;;;;;;;;;5038291;28;20029;-79
2022/10/08 07:39:28;;;;;;;22.35;3.80;;;;;;;;;;5040292;28;20037;-79
2022/10/08 07:41:55;;;;;;;18.58;4.03;;;;;;;;;;5036425;28;20022;-76
2022/10/08 07:44:20;;;;;;;22.92;3.80;;;;;;;;;;5038478;28;20382;-75
2022/10/08 07:46:48;;;;;;;31.52;6.28;;;;;;;;;;5018158;28;20033;-75
2022/10/08 07:49:14;;;;;;;30.42;4.00;;;;;;;;;;5039713;28;20025;-76
2022/10/08 07:51:40;;;;;;;28.80;4.75;;;;;;;;;;5035986;28;20026;-76
2022/10/08 07:54:10;;;;;;;20.52;3.80;;;;;;;;;;5020227;28;20033;-75
2022/10/08 07:56:36;;;;;;;15.70;4.85;;;;;;;;;;5039585;28;20032;-73
2022/10/08 07:59:02;;;;;;;19.33;4.35;;;;;;;;;;5036979;28;20465;-72
2022/10/08 08:01:29;;;;;;;19.20;3.60;;;;;;;;;;5037381;28;20077;-75
2022/10/08 08:04:00;;;;;;;19.70;3.22;;;;;;;;;;5037025;28;20025;-73
2022/10/08 08:06:26;;;;;;;21.15;3.40;;;;;;;;;;5040003;28;20393;-74
2022/10/08 08:08:52;;;;;;;21.90;3.33;;;;;;;;;;5035795;28;20096;-73
2022/10/08 08:11:19;;;;;;;23.75;3.67;;;;;;;;;;5036330;28;20025;-73
2022/10/08 08:13:46;;;;;;;19.30;3.25;;;;;;;;;;5039194;28;20021;-73
2022/10/08 08:16:13;;;;;;;18.05;3.17;;;;;;;;;;5034851;28;20063;-74
2022/10/08 08:18:40;;;;;;;21.98;3.47;;;;;;;;;;5033761;28;20021;-73
2022/10/08 08:21:09;;;;;;;18.73;2.90;;;;;;;;;;5015710;28;20026;-73
2022/10/08 08:23:38;;;;;;;11.63;2.47;;;;;;;;;;5034089;28;20390;-73
2022/10/08 08:26:05;;;;;;;15.27;3.40;;;;;;;;;;5033816;28;20061;-75
2022/10/08 08:28:32;;;;;;;17.25;2.65;;;;;;;;;;5036223;28;20486;-76
2022/10/08 08:31:22;;;;;;;17.17;2.63;;;;;;;;;;5016770;28;20033;-75
2022/10/08 08:33:55;;;;;;;14.20;2.50;;;;;;;;;;5017431;28;20418;-76
2022/10/08 08:36:24;;;;;;;14.93;2.65;;;;;;;;;;5041631;28;20029;-75
2022/10/08 08:38:50;;;;;;;22.45;2.83;;;;;;;;;;5041347;28;20049;-74
2022/10/08 08:41:29;;;;;;;19.02;3.10;;;;;;;;;;5040855;28;20466;-75
2022/10/08 08:44:07;;;;;;;18.17;2.60;;;;;;;;;;5037663;28;20076;-75
2022/10/08 08:46:35;;;;;;;18.63;2.67;;;;;;;;;;5035346;28;20018;-76
2022/10/08 08:49:04;;;;;;;18.50;2.80;;;;;;;;;;5034888;28;20021;-79
2022/10/08 08:51:30;;;;;;;22.23;4.35;;;;;;;;;;5020672;28;20025;-73
2022/10/08 08:53:56;;;;;;;16.05;2.88;;;;;;;;;;5035717;28;20382;-76
2022/10/08 08:56:23;;;;;;;20.95;2.80;;;;;;;;;;5021418;28;20482;-73
2022/10/08 08:58:57;;;;;;;15.23;2.80;;;;;;;;;;5042933;28;20029;-74
2022/10/08 09:01:30;;;;;;;22.42;3.40;;;;;;;;;;5043266;28;20533;-73
2022/10/08 09:03:58;;;;;;;14.48;3.28;;;;;;;;;;5023522;28;20029;-74
2022/10/08 09:06:25;;;;;;;21.80;3.90;;;;;;;;;;5038973;28;20108;-75
2022/10/08 09:08:54;;;;;;;24.88;3.92;;;;;;;;;;5037214;28;20022;-74
2022/10/08 09:11:21;;;;;;;17.55;3.17;;;;;;;;;;5033418;28;20377;-74
2022/10/08 09:13:50;;;;;;;14.55;3.33;;;;;;;;;;5032969;28;20025;-75
2022/10/08 09:16:16;;;;;;;14.73;2.58;;;;;;;;;;5030457;28;20021;-74
2022/10/08 09:18:45;;;;;;;16.13;2.72;;;;;;;;;;5013026;28;20040;-75
2022/10/08 09:21:11;;;;;;;13.13;2.03;;;;;;;;;;5012710;28;20030;-75
2022/10/08 09:23:37;;;;;;;14.27;2.35;;;;;;;;;;5012604;28;20025;-76
2022/10/08 09:26:08;;;;;;;13.60;2.47;;;;;;;;;;5012634;28;20105;-75
2022/10/08 09:28:38;;;;;;;14.90;2.85;;;;;;;;;;5015614;28;20294;-75
2022/10/08 09:31:12;;;;;;;9.60;1.73;;;;;;;;;;4998643;28;20026;-76
2022/10/08 09:33:39;;;;;;;11.55;2.13;;;;;;;;;;4997795;28;20027;-73
2022/10/08 09:36:05;;;;;;;10.73;2.33;;;;;;;;;;5015994;28;20105;-73
2022/10/08 09:38:34;;;;;;;8.68;2.03;;;;;;;;;;5015828;28;20080;-73
2022/10/08 09:41:08;;;;;;;10.57;1.98;;;;;;;;;;5014371;28;20029;-72
2022/10/08 09:43:34;;;;;;;10.35;1.95;;;;;;;;;;5017028;28;20018;-72
2022/10/08 09:46:04;;;;;;;7.10;1.25;;;;;;;;;;5018707;28;20018;-72
2022/10/08 09:48:30;;;;;;;9.82;1.83;;;;;;;;;;5000200;28;20036;-72
2022/10/08 09:51:04;;;;;;;13.77;1.60;;;;;;;;;;4998552;28;20033;-71
2022/10/08 09:53:43;;;;;;;9.73;1.90;;;;;;;;;;5018730;28;20077;-72
2022/10/08 09:56:11;;;;;;;9.20;1.67;;;;;;;;;;5018687;28;20030;-72
2022/10/08 09:58:52;;;;;;;11.20;1.80;;;;;;;;;;5013424;28;20033;-73
2022/10/08 10:01:18;;;;;;;9.00;2.17;;;;;;;;;;5012020;28;20343;-76
2022/10/08 10:03:49;;;;;;;7.55;1.40;;;;;;;;;;5012812;28;20408;-76
2022/10/08 10:06:23;;;;;;;7.65;1.48;;;;;;;;;;5018921;28;20029;-75
2022/10/08 10:08:58;;;;;;;8.02;1.80;;;;;;;;;;5019763;28;20072;-75
2022/10/08 10:11:34;;;;;;;8.73;1.77;;;;;;;;;;5015442;28;20018;-75
2022/10/08 10:14:04;;;;;;;8.88;2.03;;;;;;;;;;5012802;28;20102;-74
2022/10/08 10:16:34;;;;;;;9.52;2.03;;;;;;;;;;5012127;28;20056;-74
2022/10/08 10:19:03;;;;;;;4.82;1.35;;;;;;;;;;5013266;28;20050;-76
2022/10/08 10:21:34;;;;;;;12.00;1.73;;;;;;;;;;5012066;28;20491;-75
2022/10/08 10:24:05;;;;;;;5.90;1.48;;;;;;;;;;4994065;28;20018;-75
2022/10/08 10:26:35;;;;;;;9.77;2.08;;;;;;;;;;5012085;28;20077;-76
2022/10/08 10:29:14;;;;;;;8.73;1.90;;;;;;;;;;5013338;28;20030;-76
2022/10/08 10:31:42;;;;;;;7.88;2.28;;;;;;;;;;5013256;28;20021;-75
2022/10/08 10:34:08;;;;;;;6.88;1.40;;;;;;;;;;5020854;28;20450;-75
2022/10/08 10:36:37;;;;;;;10.13;1.65;;;;;;;;;;5026681;28;20082;-73
2022/10/08 10:39:12;;;;;;;10.68;2.28;;;;;;;;;;5018105;28;20049;-74
2022/10/08 10:41:56;;;;;;;8.43;2.03;;;;;;;;;;5012431;28;20049;-76
2022/10/08 10:44:26;;;;;;;7.35;1.48;;;;;;;;;;5014900;28;20022;-75
2022/10/08 10:46:57;;;;;;;10.15;2.00;;;;;;;;;;5012712;28;20144;-75
2022/10/08 10:49:25;;;;;;;7.53;1.77;;;;;;;;;;5012750;28;20514;-74
2022/10/08 10:52:07;;;;;;;9.95;2.22;;;;;;;;;;5000176;28;20026;-74
2022/10/08 10:54:33;;;;;;;6.90;1.60;;;;;;;;;;5006078;28;20026;-74
2022/10/08 10:57:04;;;;;;;10.50;1.67;;;;;;;;;;5017426;28;20033;-74
2022/10/08 10:59:35;;;;;;;6.65;1.60;;;;;;;;;;5016411;28;20034;-75
2022/10/08 11:02:10;;;;;;;6.88;1.20;;;;;;;;;;5016350;28;20033;-74
2022/10/08 11:04:51;;;;;;;7.63;1.50;;;;;;;;;;5016717;28;20014;-74
2022/10/08 11:07:40;;;;;;;7.88;1.48;;;;;;;;;;5017673;28;20627;-76
2022/10/08 11:10:27;;;;;;;10.00;1.85;;;;;;;;;;5016667;28;20034;-75
2022/10/08 11:13:00;;;;;;;9.90;2.20;;;;;;;;;;4998604;28;20025;-75
2022/10/08 11:15:35;;;;;;;12.30;1.58;;;;;;;;;;4999938;28;20388;-73
2022/10/08 11:18:10;;;;;;;8.75;1.92;;;;;;;;;;5016881;28;20033;-76
2022/10/08 11:20:38;;;;;;;11.95;1.92;;;;;;;;;;5015680;28;20029;-75
2022/10/08 11:23:24;;;;;;;10.07;2.38;;;;;;;;;;5015626;28;20087;-75
2022/10/08 11:25:56;;;;;;;6.82;2.10;;;;;;;;;;4975144;28;20575;-76
2022/10/08 11:28:46;;;;;;;4.15;1.77;;;;;;;;;;5015386;28;20038;-74
2022/10/08 11:31:36;;;;;;;6.95;2.08;;;;;;;;;;5014990;28;20033;-74
2022/10/08 11:34:03;;;;;;;6.60;1.40;;;;;;;;;;5015492;28;20133;-75
2022/10/08 11:36:34;;;;;;;4.50;1.55;;;;;;;;;;5015180;28;20030;-74
2022/10/08 11:39:14;;;;;;;5.63;1.70;;;;;;;;;;5015729;28;20030;-75
2022/10/08 11:41:46;;;;;;;3.28;1.20;;;;;;;;;;5018703;28;20030;-76
2022/10/08 11:44:12;;;;;;;5.10;1.30;;;;;;;;;;5002170;28;20475;-73
2022/10/08 11:46:38;;;;;;;64.65;44.00;;;;;;;;;;5016353;28;20022;-74
2022/10/08 11:49:13;;;;;;;9.32;5.53;;;;;;;;;;5016588;28;20124;-74
2022/10/08 11:51:40;;;;;;;5.28;2.95;;;;;;;;;;4999366;28;20032;-75
2022/10/08 11:54:08;;;;;;;3.75;1.27;;;;;;;;;;5018438;28;20097;-75
2022/10/08 11:56:42;;;;;;;2.30;1.00;;;;;;;;;;4999328;28;20022;-75
2022/10/08 11:59:23;;;;;;;4.93;1.02;;;;;;;;;;5016684;28;20558;-75
2022/10/08 12:01:54;;;;;;;2.22;0.88;;;;;;;;;;5000876;28;20032;-76
2022/10/08 12:04:28;;;;;;;3.05;1.10;;;;;;;;;;5016536;28;20029;-76
2022/10/08 12:07:02;;;;;;;1.83;0.80;;;;;;;;;;4998066;28;20026;-74
2022/10/08 12:09:48;;;;;;;3.17;0.80;;;;;;;;;;4998002;28;20037;-74
2022/10/08 12:12:14;;;;;;;2.58;1.00;;;;;;;;;;4997071;28;20022;-73
2022/10/08 12:14:44;;;;;;;3.40;0.93;;;;;;;;;;5015093;28;20057;-74
2022/10/08 12:17:10;;;;;;;4.95;0.82;;;;;;;;;;5014735;28;20109;-76
2022/10/08 12:19:43;;;;;;;6.95;1.20;;;;;;;;;;5016488;28;20475;-74
2022/10/08 12:22:16;;;;;;;4.30;1.15;;;;;;;;;;4997994;28;20165;-74
2022/10/08 12:24:45;;;;;;;5.57;1.20;;;;;;;;;;4998777;28;20075;-74
2022/10/08 12:27:17;;;;;;;5.25;1.10;;;;;;;;;;5044111;23;20041;-76
2022/10/08 12:29:56;;;;;;;4.40;1.33;;;;;;;;;;5054025;28;20511;-75
2022/10/08 12:32:26;;;;;;;5.00;1.00;;;;;;;;;;5055642;28;20028;-76
2022/10/08 12:34:52;;;;;;;6.80;1.10;;;;;;;;;;5054418;28;20478;-75
2022/10/08 12:37:32;;;;;;;4.97;1.15;;;;;;;;;;5069884;28;20024;-74
2022/10/08 12:40:02;;;;;;;5.47;1.25;;;;;;;;;;5079397;28;20441;-73
2022/10/08 12:42:32;;;;;;;5.25;1.33;;;;;;;;;;5073243;28;20032;-74
2022/10/08 12:45:06;;;;;;;5.68;1.73;;;;;;;;;;5073568;28;20437;-71
2022/10/08 12:47:58;;;;;;;6.50;1.40;;;;;;;;;;5073024;28;20031;-76
2022/10/08 12:50:33;;;;;;;4.53;1.15;;;;;;;;;;5073237;28;20047;-74
2022/10/08 12:53:00;;;;;;;9.57;1.08;;;;;;;;;;5073102;28;20505;-74
2022/10/08 12:55:26;;;;;;;5.07;1.23;;;;;;;;;;5072910;28;20029;-75
2022/10/08 12:57:52;;;;;;;11.27;2.28;;;;;;;;;;5073318;28;20036;-74
2022/10/08 13:00:22;;;;;;;6.03;1.40;;;;;;;;;;5072756;28;20029;-75
2022/10/08 13:03:02;;;;;;;7.25;1.40;;;;;;;;;;5072855;28;20024;-72
2022/10/08 13:05:42;;;;;;;8.20;1.42;;;;;;;;;;5068679;28;20513;-73
2022/10/08 13:08:27;;;;;;;6.63;1.27;;;;;;;;;;5072772;28;20078;-73
2022/10/08 13:10:53;;;;;;;6.47;1.77;;;;;;;;;;5073126;28;20036;-73
2022/10/08 13:13:32;;;;;;;12.50;2.08;;;;;;;;;;5072817;28;20052;-75
2022/10/08 13:15:59;;;;;;;6.32;1.63;;;;;;;;;;5054215;28;20135;-74
2022/10/08 13:18:25;;;;;;;6.80;1.50;;;;;;;;;;5072359;28;20522;-73
2022/10/08 13:20:56;;;;;;;9.02;1.88;;;;;;;;;;5072660;28;20024;-74
2022/10/08 13:23:45;;;;;;;10.68;2.85;;;;;;;;;;5072692;28;20077;-74
2022/10/08 13:26:30;;;;;;;8.10;1.33;;;;;;;;;;5059693;28;20041;-73
2022/10/08 13:29:14;;;;;;;11.40;1.85;;;;;;;;;;5072757;28;20043;-73
2022/10/08 13:31:40;;;;;;;8.68;1.95;;;;;;;;;;5055762;28;20346;-73
2022/10/08 13:34:12;;;;;;;7.88;1.45;;;;;;;;;;5074042;28;20025;-73
2022/10/08 13:36:38;;;;;;;6.97;1.30;;;;;;;;;;5076433;28;20300;-72
2022/10/08 13:39:04;;;;;;;7.22;1.30;;;;;;;;;;5075573;28;20029;-76
2022/10/08 13:41:30;;;;;;;10.00;1.50;;;;;;;;;;5076646;28;20308;-73
2022/10/08 13:43:56;;;;;;;9.73;1.90;;;;;;;;;;5076575;28;20407;-73
2022/10/08 13:46:22;;;;;;;6.72;1.50;;;;;;;;;;5073440;28;20028;-72
2022/10/08 13:48:48;;;;;;;9.98;1.90;;;;;;;;;;5072372;28;20121;-72
2022/10/08 13:51:14;;;;;;;7.65;1.40;;;;;;;;;;5075214;28;20028;-74
2022/10/08 13:53:44;;;;;;;7.35;1.80;;;;;;;;;;5073252;28;20090;-73
2022/10/08 13:56:10;;;;;;;8.52;1.55;;;;;;;;;;5072623;28;20107;-73
2022/10/08 13:58:36;;;;;;;7.68;1.70;;;;;;;;;;5072466;28;20093;-73
2022/10/08 14:01:02;;;;;;;8.07;1.75;;;;;;;;;;5075299;28;20078;-73
2022/10/08 14:03:28;;;;;;;6.40;1.92;;;;;;;;;;5055489;28;20571;-73
2022/10/08 14:05:53;;;;;;;6.32;1.98;;;;;;;;;;5074010;28;20482;-72
2022/10/08 14:08:23;;;;;;;6.57;1.92;;;;;;;;;;5074860;28;20029;-75
2022/10/08 14:10:51;;;;;;;5.63;1.65;;;;;;;;;;5072924;28;20489;-74
2022/10/08 14:13:17;;;;;;;14.60;4.82;;;;;;;;;;5072063;28;20020;-74
2022/10/08 14:15:43;;;;;;;13.52;3.08;;;;;;;;;;5072179;28;20495;-71
2022/10/08 14:18:09;;;;;;;12.45;3.63;;;;;;;;;;5073124;28;20032;-74
2022/10/08 14:20:36;;;;;;;14.45;4.20;;;;;;;;;;5073265;28;20035;-72
2022/10/08 14:23:02;;;;;;;14.20;3.72;;;;;;;;;;5073098;28;20032;-75
2022/10/08 14:25:29;;;;;;;20.38;4.93;;;;;;;;;;5073855;28;20074;-78
2022/10/08 14:27:59;;;;;;;14.30;3.10;;;;;;;;;;5079945;28;20025;-79
2022/10/08 14:30:25;;;;;;;8.93;2.75;;;;;;;;;;5078324;28;20108;-73
2022/10/08 14:32:51;;;;;;;9.48;2.97;;;;;;;;;;5083161;28;20388;-72
2022/10/08 14:35:18;;;;;;;12.55;3.13;;;;;;;;;;5062020;28;20082;-74
2022/10/08 14:37:44;;;;;;;9.40;2.17;;;;;;;;;;5079211;28;20028;-74
2022/10/08 14:40:14;;;;;;;12.45;2.40;;;;;;;;;;5076617;28;20397;-77
2022/10/08 14:42:40;;;;;;;12.18;2.70;;;;;;;;;;5077330;28;20470;-77
2022/10/08 14:45:06;;;;;;;9.82;2.35;;;;;;;;;;5064134;28;20032;-76